sensor_id;sensor_type;location;lat;lon;timestamp;pressure;altitude;pressure_sealevel;temperature;humidity
21828;BME280;11076;47.942;11.804;2022-11-20T00:02:43;93756.75;;;3.21;100.00
21828;BME280;11076;47.942;11.804;2022-11-20T00:07:45;93761.81;;;3.22;100.00
21828;BME280;11076;47.942;11.804;2022-11-20T00:12:48;93761.44;;;3.25;100.00
21828;BME280;11076;47.942;11.804;2022-11-20T00:17:50;93770.19;;;3.26;100.00
21828;BME280;11076;47.942;11.804;2022-11-20T00:22:52;93765.72;;;3.26;100.00
21828;BME280;11076;47.942;11.804;2022-11-20T00:27:55;93771.66;;;3.28;100.00
21828;BME280;11076;47.942;11.804;2022-11-20T00:32:57;93769.88;;;3.35;100.00
21828;BME280;11076;47.942;11.804;2022-11-20T00:38:00;93778.69;;;3.43;100.00
21828;BME280;11076;47.942;11.804;2022-11-20T00:43:02;93775.09;;;3.50;100.00
21828;BME280;11076;47.942;11.804;2022-11-20T00:48:04;93779.97;;;3.53;100.00
21828;BME280;11076;47.942;11.804;2022-11-20T00:53:07;93770.63;;;3.51;100.00
21828;BME280;11076;47.942;11.804;2022-11-20T00:58:09;93785.72;;;3.57;100.00
21828;BME280;11076;47.942;11.804;2022-11-20T01:03:16;93787.00;;;3.68;100.00
21828;BME280;11076;47.942;11.804;2022-11-20T01:08:20;93791.34;;;3.75;100.00
21828;BME280;11076;47.942;11.804;2022-11-20T01:13:22;93803.44;;;3.85;100.00
21828;BME280;11076;47.942;11.804;2022-11-20T01:18:43;93793.13;;;3.96;100.00
21828;BME280;11076;47.942;11.804;2022-11-20T01:23:47;93808.25;;;4.03;100.00
21828;BME280;11076;47.942;11.804;2022-11-20T01:28:50;93803.59;;;4.11;100.00
21828;BME280;11076;47.942;11.804;2022-11-20T01:33:55;93802.81;;;4.17;100.00
21828;BME280;11076;47.942;11.804;2022-11-20T01:39:00;93806.72;;;4.22;100.00
21828;BME280;11076;47.942;11.804;2022-11-20T01:44:03;93800.69;;;4.28;100.00
21828;BME280;11076;47.942;11.804;2022-11-20T01:49:20;93802.69;;;4.26;100.00
21828;BME280;11076;47.942;11.804;2022-11-20T01:54:42;93799.66;;;4.29;100.00
21828;BME280;11076;47.942;11.804;2022-11-20T01:59:54;93799.28;;;4.32;100.00
21828;BME280;11076;47.942;11.804;2022-11-20T02:05:04;93798.44;;;4.31;100.00
21828;BME280;11076;47.942;11.804;2022-11-20T02:10:11;93796.41;;;4.33;100.00
21828;BME280;11076;47.942;11.804;2022-11-20T02:15:14;93800.91;;;4.33;100.00
21828;BME280;11076;47.942;11.804;2022-11-20T02:20:16;93805.81;;;4.36;100.00
21828;BME280;11076;47.942;11.804;2022-11-20T02:25:19;93810.84;;;4.31;100.00
21828;BME280;11076;47.942;11.804;2022-11-20T02:30:22;93806.59;;;4.30;100.00
21828;BME280;11076;47.942;11.804;2022-11-20T02:40:26;93814.28;;;4.25;100.00
21828;BME280;11076;47.942;11.804;2022-11-20T02:45:29;93805.69;;;4.16;100.00
21828;BME280;11076;47.942;11.804;2022-11-20T02:50:31;93802.78;;;4.11;100.00
21828;BME280;11076;47.942;11.804;2022-11-20T02:55:33;93806.28;;;3.90;100.00
21828;BME280;11076;47.942;11.804;2022-11-20T03:00:36;93797.59;;;3.68;100.00
21828;BME280;11076;47.942;11.804;2022-11-20T03:05:38;93791.13;;;3.49;100.00
21828;BME280;11076;47.942;11.804;2022-11-20T03:10:41;93792.03;;;3.34;100.00
21828;BME280;11076;47.942;11.804;2022-11-20T03:15:43;93801.06;;;3.25;100.00
21828;BME280;11076;47.942;11.804;2022-11-20T03:20:45;93803.84;;;3.17;100.00
21828;BME280;11076;47.942;11.804;2022-11-20T03:25:48;93801.94;;;3.11;100.00
21828;BME280;11076;47.942;11.804;2022-11-20T03:30:50;93798.34;;;2.97;100.00
21828;BME280;11076;47.942;11.804;2022-11-20T03:35:52;93798.66;;;2.87;100.00
21828;BME280;11076;47.942;11.804;2022-11-20T03:40:59;93799.13;;;2.76;100.00
21828;BME280;11076;47.942;11.804;2022-11-20T03:46:02;93799.50;;;2.73;100.00
21828;BME280;11076;47.942;11.804;2022-11-20T03:56:12;93800.03;;;2.83;100.00
21828;BME280;11076;47.942;11.804;2022-11-20T04:01:18;93799.16;;;2.97;100.00
21828;BME280;11076;47.942;11.804;2022-11-20T04:06:26;93789.38;;;3.13;100.00
21828;BME280;11076;47.942;11.804;2022-11-20T04:11:31;93796.06;;;3.30;100.00
21828;BME280;11076;47.942;11.804;2022-11-20T04:16:35;93809.38;;;3.44;100.00
21828;BME280;11076;47.942;11.804;2022-11-20T04:21:38;93801.56;;;3.57;100.00
21828;BME280;11076;47.942;11.804;2022-11-20T04:26:40;93802.88;;;3.68;100.00
21828;BME280;11076;47.942;11.804;2022-11-20T04:31:43;93805.59;;;3.74;100.00
21828;BME280;11076;47.942;11.804;2022-11-20T04:36:45;93811.72;;;3.82;100.00
21828;BME280;11076;47.942;11.804;2022-11-20T04:41:47;93803.78;;;3.82;100.00
21828;BME280;11076;47.942;11.804;2022-11-20T04:46:50;93805.03;;;3.86;100.00
21828;BME280;11076;47.942;11.804;2022-11-20T04:51:55;93808.56;;;3.93;100.00
21828;BME280;11076;47.942;11.804;2022-11-20T04:56:58;93809.19;;;3.95;100.00
21828;BME280;11076;47.942;11.804;2022-11-20T05:02:00;93816.94;;;3.96;100.00
21828;BME280;11076;47.942;11.804;2022-11-20T05:07:02;93819.59;;;3.96;100.00
21828;BME280;11076;47.942;11.804;2022-11-20T05:12:07;93820.59;;;3.95;100.00
21828;BME280;11076;47.942;11.804;2022-11-20T05:17:11;93821.78;;;3.93;100.00
21828;BME280;11076;47.942;11.804;2022-11-20T05:22:14;93817.13;;;3.95;100.00
21828;BME280;11076;47.942;11.804;2022-11-20T05:27:16;93823.44;;;3.94;100.00
21828;BME280;11076;47.942;11.804;2022-11-20T05:32:18;93825.66;;;3.90;100.00
21828;BME280;11076;47.942;11.804;2022-11-20T05:37:21;93823.38;;;3.87;100.00
21828;BME280;11076;47.942;11.804;2022-11-20T05:42:23;93825.84;;;3.89;100.00
21828;BME280;11076;47.942;11.804;2022-11-20T05:47:34;93828.66;;;3.87;100.00
21828;BME280;11076;47.942;11.804;2022-11-20T05:52:37;93824.75;;;3.83;100.00
21828;BME280;11076;47.942;11.804;2022-11-20T05:57:39;93832.75;;;3.90;100.00
21828;BME280;11076;47.942;11.804;2022-11-20T06:02:41;93829.09;;;3.91;100.00
21828;BME280;11076;47.942;11.804;2022-11-20T06:07:44;93833.31;;;3.85;100.00
21828;BME280;11076;47.942;11.804;2022-11-20T06:12:46;93832.66;;;3.76;100.00
21828;BME280;11076;47.942;11.804;2022-11-20T06:17:52;93833.03;;;3.73;100.00
21828;BME280;11076;47.942;11.804;2022-11-20T06:22:55;93833.28;;;3.78;100.00
21828;BME280;11076;47.942;11.804;2022-11-20T06:27:57;93834.72;;;3.81;100.00
21828;BME280;11076;47.942;11.804;2022-11-20T06:32:59;93829.31;;;3.68;100.00
21828;BME280;11076;47.942;11.804;2022-11-20T06:38:02;93842.13;;;3.64;100.00
21828;BME280;11076;47.942;11.804;2022-11-20T06:43:04;93842.97;;;3.50;100.00
21828;BME280;11076;47.942;11.804;2022-11-20T06:48:06;93843.22;;;3.33;100.00
21828;BME280;11076;47.942;11.804;2022-11-20T06:53:09;93860.31;;;3.16;100.00
21828;BME280;11076;47.942;11.804;2022-11-20T06:58:15;93857.53;;;3.03;100.00
21828;BME280;11076;47.942;11.804;2022-11-20T07:03:17;93867.53;;;2.92;100.00
21828;BME280;11076;47.942;11.804;2022-11-20T07:08:20;93867.94;;;2.89;100.00
21828;BME280;11076;47.942;11.804;2022-11-20T07:13:22;93866.66;;;2.85;100.00
21828;BME280;11076;47.942;11.804;2022-11-20T07:18:24;93871.19;;;2.91;100.00
21828;BME280;11076;47.942;11.804;2022-11-20T07:23:26;93875.38;;;3.01;100.00
21828;BME280;11076;47.942;11.804;2022-11-20T07:28:29;93878.03;;;3.22;100.00
21828;BME280;11076;47.942;11.804;2022-11-20T07:33:31;93885.13;;;3.36;100.00
21828;BME280;11076;47.942;11.804;2022-11-20T07:38:34;93881.22;;;3.54;100.00
21828;BME280;11076;47.942;11.804;2022-11-20T07:43:36;93871.72;;;3.38;100.00
21828;BME280;11076;47.942;11.804;2022-11-20T07:48:41;93882.06;;;3.54;100.00
21828;BME280;11076;47.942;11.804;2022-11-20T07:53:44;93872.56;;;3.82;100.00
21828;BME280;11076;47.942;11.804;2022-11-20T07:58:46;93880.59;;;4.16;100.00
21828;BME280;11076;47.942;11.804;2022-11-20T08:03:48;93879.50;;;4.67;100.00
21828;BME280;11076;47.942;11.804;2022-11-20T08:08:51;93880.91;;;5.05;99.18
21828;BME280;11076;47.942;11.804;2022-11-20T08:13:53;93868.69;;;5.65;93.65
21828;BME280;11076;47.942;11.804;2022-11-20T08:19:15;93872.34;;;5.64;94.10
21828;BME280;11076;47.942;11.804;2022-11-20T08:24:18;93873.94;;;5.45;91.44
21828;BME280;11076;47.942;11.804;2022-11-20T08:29:20;93867.00;;;5.51;92.27
21828;BME280;11076;47.942;11.804;2022-11-20T08:34:23;93870.25;;;5.46;88.67
21828;BME280;11076;47.942;11.804;2022-11-20T08:39:25;93879.63;;;5.35;88.28
21828;BME280;11076;47.942;11.804;2022-11-20T08:44:27;93877.78;;;5.36;86.97
21828;BME280;11076;47.942;11.804;2022-11-20T08:49:30;93871.91;;;5.61;86.94
21828;BME280;11076;47.942;11.804;2022-11-20T08:54:32;93882.97;;;5.84;85.00
21828;BME280;11076;47.942;11.804;2022-11-20T08:59:34;93864.25;;;5.99;82.96
21828;BME280;11076;47.942;11.804;2022-11-20T09:04:57;93874.47;;;6.15;81.85
21828;BME280;11076;47.942;11.804;2022-11-20T09:09:59;93871.41;;;6.32;81.68
21828;BME280;11076;47.942;11.804;2022-11-20T09:15:19;93874.47;;;6.49;80.64
21828;BME280;11076;47.942;11.804;2022-11-20T09:20:22;93872.00;;;6.61;78.27
21828;BME280;11076;47.942;11.804;2022-11-20T09:25:24;93866.44;;;6.75;77.98
21828;BME280;11076;47.942;11.804;2022-11-20T09:30:27;93863.97;;;6.87;77.73
21828;BME280;11076;47.942;11.804;2022-11-20T09:35:29;93857.84;;;6.80;75.55
21828;BME280;11076;47.942;11.804;2022-11-20T09:40:34;93859.69;;;6.80;74.02
21828;BME280;11076;47.942;11.804;2022-11-20T09:46:04;93860.50;;;6.80;72.31
21828;BME280;11076;47.942;11.804;2022-11-20T09:56:11;93851.25;;;7.03;68.84
21828;BME280;11076;47.942;11.804;2022-11-20T10:01:22;93840.34;;;7.24;69.29
21828;BME280;11076;47.942;11.804;2022-11-20T10:06:32;93857.09;;;7.18;67.40
21828;BME280;11076;47.942;11.804;2022-11-20T10:33:22;93825.50;;;7.73;64.70
21828;BME280;11076;47.942;11.804;2022-11-20T10:38:43;93819.41;;;7.98;64.13
21828;BME280;11076;47.942;11.804;2022-11-20T10:43:48;93831.72;;;8.17;63.61
21828;BME280;11076;47.942;11.804;2022-11-20T10:48:52;93821.84;;;7.74;64.55
21828;BME280;11076;47.942;11.804;2022-11-20T10:59:03;93810.84;;;7.64;65.23
21828;BME280;11076;47.942;11.804;2022-11-20T11:04:23;93810.78;;;7.39;64.16
21828;BME280;11076;47.942;11.804;2022-11-20T11:09:34;93795.81;;;7.76;63.84
21828;BME280;11076;47.942;11.804;2022-11-20T11:14:50;93804.94;;;8.81;63.08
21828;BME280;11076;47.942;11.804;2022-11-20T11:20:01;93794.72;;;8.60;61.26
21828;BME280;11076;47.942;11.804;2022-11-20T11:25:04;93796.72;;;8.64;60.09
21828;BME280;11076;47.942;11.804;2022-11-20T11:30:17;93796.66;;;8.71;60.57
21828;BME280;11076;47.942;11.804;2022-11-20T11:35:27;93789.22;;;8.29;60.32
21828;BME280;11076;47.942;11.804;2022-11-20T11:40:33;93789.09;;;7.99;61.25
21828;BME280;11076;47.942;11.804;2022-11-20T11:45:36;93783.06;;;7.60;61.91
21828;BME280;11076;47.942;11.804;2022-11-20T11:50:48;93787.06;;;7.37;62.61
21828;BME280;11076;47.942;11.804;2022-11-20T11:56:02;93788.56;;;7.27;63.55
21828;BME280;11076;47.942;11.804;2022-11-20T12:06:36;93771.88;;;7.45;64.19
21828;BME280;11076;47.942;11.804;2022-11-20T12:11:54;93772.91;;;7.75;64.24
21828;BME280;11076;47.942;11.804;2022-11-20T12:16:57;93782.53;;;7.76;64.07
21828;BME280;11076;47.942;11.804;2022-11-20T12:22:12;93771.88;;;7.45;63.20
21828;BME280;11076;47.942;11.804;2022-11-20T12:27:49;93772.75;;;7.39;64.12
21828;BME280;11076;47.942;11.804;2022-11-20T12:43:25;93765.50;;;7.14;64.40
21828;BME280;11076;47.942;11.804;2022-11-20T12:54:25;93766.16;;;7.09;66.08
21828;BME280;11076;47.942;11.804;2022-11-20T13:16:01;93758.78;;;7.11;67.54
21828;BME280;11076;47.942;11.804;2022-11-20T13:21:59;93760.38;;;6.81;71.44
21828;BME280;11076;47.942;11.804;2022-11-20T13:26:42;93771.69;;;6.63;76.55
21828;BME280;11076;47.942;11.804;2022-11-20T13:31:46;93763.75;;;6.36;77.82
21828;BME280;11076;47.942;11.804;2022-11-20T13:36:52;93753.75;;;6.38;79.15
21828;BME280;11076;47.942;11.804;2022-11-20T13:42:03;93749.88;;;6.41;79.99
21828;BME280;11076;47.942;11.804;2022-11-20T13:47:23;93754.31;;;6.53;80.27
21828;BME280;11076;47.942;11.804;2022-11-20T13:52:39;93751.47;;;6.48;80.86
21828;BME280;11076;47.942;11.804;2022-11-20T14:03:18;93757.66;;;5.89;84.81
21828;BME280;11076;47.942;11.804;2022-11-20T14:08:46;93742.78;;;5.74;86.43
21828;BME280;11076;47.942;11.804;2022-11-20T14:24:23;93740.34;;;5.40;90.71
21828;BME280;11076;47.942;11.804;2022-11-20T14:29:33;93734.00;;;5.41;92.43
21828;BME280;11076;47.942;11.804;2022-11-20T14:34:39;93735.66;;;5.42;92.00
21828;BME280;11076;47.942;11.804;2022-11-20T14:39:48;93735.66;;;5.42;92.83
21828;BME280;11076;47.942;11.804;2022-11-20T14:44:54;93731.97;;;5.29;93.71
21828;BME280;11076;47.942;11.804;2022-11-20T14:49:58;93726.06;;;5.27;92.44
21828;BME280;11076;47.942;11.804;2022-11-20T14:55:04;93727.28;;;5.18;92.68
21828;BME280;11076;47.942;11.804;2022-11-20T15:05:10;93727.47;;;5.16;93.28
21828;BME280;11076;47.942;11.804;2022-11-20T15:20:45;93746.81;;;5.17;92.85
21828;BME280;11076;47.942;11.804;2022-11-20T15:25:48;93738.44;;;5.07;93.42
21828;BME280;11076;47.942;11.804;2022-11-20T15:30:51;93732.16;;;5.08;90.85
21828;BME280;11076;47.942;11.804;2022-11-20T15:35:53;93731.09;;;4.95;90.59
21828;BME280;11076;47.942;11.804;2022-11-20T15:40:56;93726.56;;;4.83;91.48
21828;BME280;11076;47.942;11.804;2022-11-20T15:46:09;93721.28;;;4.76;91.53
21828;BME280;11076;47.942;11.804;2022-11-20T15:51:26;93729.84;;;4.78;91.62
21828;BME280;11076;47.942;11.804;2022-11-20T15:56:29;93727.00;;;4.80;91.86
21828;BME280;11076;47.942;11.804;2022-11-20T16:01:31;93743.28;;;4.83;91.43
21828;BME280;11076;47.942;11.804;2022-11-20T16:06:33;93746.97;;;4.82;91.55
21828;BME280;11076;47.942;11.804;2022-11-20T16:11:36;93740.44;;;4.78;91.92
21828;BME280;11076;47.942;11.804;2022-11-20T16:16:39;93732.66;;;4.70;92.08
21828;BME280;11076;47.942;11.804;2022-11-20T16:21:43;93740.78;;;4.68;92.05
21828;BME280;11076;47.942;11.804;2022-11-20T16:26:46;93731.81;;;4.63;92.46
21828;BME280;11076;47.942;11.804;2022-11-20T16:31:48;93728.13;;;4.57;91.93
21828;BME280;11076;47.942;11.804;2022-11-20T16:36:50;93734.22;;;4.51;91.34
21828;BME280;11076;47.942;11.804;2022-11-20T16:41:53;93730.66;;;4.30;91.50
21828;BME280;11076;47.942;11.804;2022-11-20T16:46:55;93737.41;;;3.98;91.63
21828;BME280;11076;47.942;11.804;2022-11-20T16:51:58;93731.28;;;3.63;91.67
21828;BME280;11076;47.942;11.804;2022-11-20T16:57:01;93720.78;;;3.26;92.12
21828;BME280;11076;47.942;11.804;2022-11-20T17:02:03;93717.31;;;2.97;92.75
21828;BME280;11076;47.942;11.804;2022-11-20T17:07:05;93716.19;;;2.70;93.32
21828;BME280;11076;47.942;11.804;2022-11-20T17:12:08;93711.91;;;2.48;94.29
21828;BME280;11076;47.942;11.804;2022-11-20T17:17:11;93712.59;;;2.35;94.63
21828;BME280;11076;47.942;11.804;2022-11-20T17:22:13;93713.41;;;2.21;95.57
21828;BME280;11076;47.942;11.804;2022-11-20T17:27:16;93715.50;;;2.10;96.43
21828;BME280;11076;47.942;11.804;2022-11-20T17:32:18;93715.38;;;1.97;96.85
21828;BME280;11076;47.942;11.804;2022-11-20T17:37:20;93706.16;;;2.08;97.84
21828;BME280;11076;47.942;11.804;2022-11-20T17:42:22;93713.06;;;1.94;97.38
21828;BME280;11076;47.942;11.804;2022-11-20T17:47:27;93700.97;;;1.85;97.94
21828;BME280;11076;47.942;11.804;2022-11-20T17:52:30;93705.16;;;1.64;98.50
21828;BME280;11076;47.942;11.804;2022-11-20T17:57:32;93699.34;;;1.54;99.05
21828;BME280;11076;47.942;11.804;2022-11-20T18:02:54;93693.16;;;1.47;99.49
21828;BME280;11076;47.942;11.804;2022-11-20T18:07:56;93703.69;;;1.47;99.78
21828;BME280;11076;47.942;11.804;2022-11-20T18:12:58;93695.88;;;1.38;100.00
21828;BME280;11076;47.942;11.804;2022-11-20T18:18:01;93700.59;;;1.43;100.00
21828;BME280;11076;47.942;11.804;2022-11-20T18:23:03;93693.69;;;1.57;100.00
21828;BME280;11076;47.942;11.804;2022-11-20T18:28:06;93691.16;;;1.78;100.00
21828;BME280;11076;47.942;11.804;2022-11-20T18:33:08;93685.44;;;1.90;100.00
21828;BME280;11076;47.942;11.804;2022-11-20T18:38:10;93680.41;;;1.95;100.00
21828;BME280;11076;47.942;11.804;2022-11-20T18:43:13;93678.13;;;2.07;100.00
21828;BME280;11076;47.942;11.804;2022-11-20T18:48:34;93669.75;;;2.18;100.00
21828;BME280;11076;47.942;11.804;2022-11-20T18:53:36;93670.28;;;2.28;100.00
21828;BME280;11076;47.942;11.804;2022-11-20T18:58:42;93661.84;;;2.33;100.00
21828;BME280;11076;47.942;11.804;2022-11-20T19:03:44;93667.47;;;2.30;100.00
21828;BME280;11076;47.942;11.804;2022-11-20T19:08:48;93658.28;;;2.26;100.00
21828;BME280;11076;47.942;11.804;2022-11-20T19:13:53;93655.13;;;2.15;100.00
21828;BME280;11076;47.942;11.804;2022-11-20T19:18:58;93647.44;;;1.99;100.00
21828;BME280;11076;47.942;11.804;2022-11-20T19:24:04;93639.25;;;1.79;100.00
21828;BME280;11076;47.942;11.804;2022-11-20T19:29:07;93624.13;;;1.66;100.00
21828;BME280;11076;47.942;11.804;2022-11-20T19:34:09;93625.56;;;1.54;100.00
21828;BME280;11076;47.942;11.804;2022-11-20T19:39:13;93631.56;;;1.77;100.00
21828;BME280;11076;47.942;11.804;2022-11-20T19:44:16;93633.63;;;1.97;100.00
21828;BME280;11076;47.942;11.804;2022-11-20T19:49:19;93616.81;;;1.98;100.00
21828;BME280;11076;47.942;11.804;2022-11-20T19:54:21;93618.97;;;1.94;100.00
21828;BME280;11076;47.942;11.804;2022-11-20T19:59:23;93616.44;;;2.01;100.00
21828;BME280;11076;47.942;11.804;2022-11-20T20:04:26;93605.56;;;2.11;100.00
21828;BME280;11076;47.942;11.804;2022-11-20T20:09:28;93596.38;;;2.22;100.00
21828;BME280;11076;47.942;11.804;2022-11-20T20:14:34;93600.22;;;2.19;100.00
21828;BME280;11076;47.942;11.804;2022-11-20T20:19:37;93589.16;;;2.30;100.00
21828;BME280;11076;47.942;11.804;2022-11-20T20:24:39;93587.59;;;2.36;100.00
21828;BME280;11076;47.942;11.804;2022-11-20T20:29:41;93589.31;;;2.29;100.00
21828;BME280;11076;47.942;11.804;2022-11-20T20:34:44;93585.44;;;2.25;100.00
21828;BME280;11076;47.942;11.804;2022-11-20T20:39:46;93586.41;;;2.17;100.00
21828;BME280;11076;47.942;11.804;2022-11-20T20:44:49;93584.28;;;2.12;100.00
21828;BME280;11076;47.942;11.804;2022-11-20T20:50:10;93581.97;;;2.24;100.00
21828;BME280;11076;47.942;11.804;2022-11-20T20:55:14;93568.50;;;2.34;100.00
21828;BME280;11076;47.942;11.804;2022-11-20T21:00:16;93559.47;;;2.43;100.00
21828;BME280;11076;47.942;11.804;2022-11-20T21:05:18;93558.94;;;2.54;100.00
21828;BME280;11076;47.942;11.804;2022-11-20T21:10:21;93551.09;;;2.61;100.00
21828;BME280;11076;47.942;11.804;2022-11-20T21:15:24;93550.50;;;2.66;100.00
21828;BME280;11076;47.942;11.804;2022-11-20T21:20:27;93541.63;;;2.73;99.88
21828;BME280;11076;47.942;11.804;2022-11-20T21:25:48;93540.44;;;2.76;98.61
21828;BME280;11076;47.942;11.804;2022-11-20T21:30:50;93534.78;;;2.79;98.69
21828;BME280;11076;47.942;11.804;2022-11-20T21:35:52;93539.75;;;2.95;98.09
21828;BME280;11076;47.942;11.804;2022-11-20T21:40:58;93554.25;;;3.06;97.83
21828;BME280;11076;47.942;11.804;2022-11-20T21:46:08;93557.94;;;3.12;97.20
21828;BME280;11076;47.942;11.804;2022-11-20T21:51:13;93550.16;;;3.04;96.95
21828;BME280;11076;47.942;11.804;2022-11-20T21:56:18;93552.72;;;2.90;96.71
21828;BME280;11076;47.942;11.804;2022-11-20T22:01:23;93558.69;;;2.71;96.87
21828;BME280;11076;47.942;11.804;2022-11-20T22:06:31;93582.31;;;2.57;97.60
21828;BME280;11076;47.942;11.804;2022-11-20T22:11:34;93593.56;;;2.94;95.15
21828;BME280;11076;47.942;11.804;2022-11-20T22:16:37;93605.94;;;3.22;94.37
21828;BME280;11076;47.942;11.804;2022-11-20T22:21:39;93600.63;;;3.15;96.60
21828;BME280;11076;47.942;11.804;2022-11-20T22:26:43;93602.47;;;3.15;100.00
21828;BME280;11076;47.942;11.804;2022-11-20T22:31:45;93586.22;;;3.18;100.00
21828;BME280;11076;47.942;11.804;2022-11-20T22:36:48;93573.59;;;3.13;100.00
21828;BME280;11076;47.942;11.804;2022-11-20T22:41:51;93580.72;;;3.13;100.00
21828;BME280;11076;47.942;11.804;2022-11-20T22:46:53;93587.25;;;3.17;100.00
21828;BME280;11076;47.942;11.804;2022-11-20T22:51:56;93587.88;;;3.19;100.00
21828;BME280;11076;47.942;11.804;2022-11-20T22:56:58;93595.19;;;3.24;100.00
21828;BME280;11076;47.942;11.804;2022-11-20T23:02:00;93593.00;;;3.27;100.00
21828;BME280;11076;47.942;11.804;2022-11-20T23:07:03;93583.06;;;3.29;100.00
21828;BME280;11076;47.942;11.804;2022-11-20T23:12:05;93581.44;;;3.28;100.00
21828;BME280;11076;47.942;11.804;2022-11-20T23:17:08;93599.28;;;3.26;100.00
21828;BME280;11076;47.942;11.804;2022-11-20T23:22:10;93597.66;;;3.25;100.00
21828;BME280;11076;47.942;11.804;2022-11-20T23:27:12;93587.44;;;3.15;100.00
21828;BME280;11076;47.942;11.804;2022-11-20T23:32:15;93584.75;;;3.09;100.00
21828;BME280;11076;47.942;11.804;2022-11-20T23:37:17;93593.03;;;3.06;100.00
21828;BME280;11076;47.942;11.804;2022-11-20T23:42:19;93599.09;;;2.99;100.00
21828;BME280;11076;47.942;11.804;2022-11-20T23:47:22;93598.84;;;2.94;100.00
21828;BME280;11076;47.942;11.804;2022-11-20T23:52:24;93604.78;;;2.96;100.00
21828;BME280;11076;47.942;11.804;2022-11-20T23:57:27;93605.59;;;2.97;100.00
